Portada
METAR-TAF:

METAR-TAF

Aeroports :

Al-Kuwait, Kuwait

latitud: 29-13N, longitud: 047-59E, altitud: 55 m

Observació

L'informe es va fer fa 48 minuts, a les 02:00 UTC
Vent 8 kt del Nord/Nord-Oest
Temperatura 33°C
Humitat 23%
Pressió 1016 hPa
Visibilitat 10 km o més
sense núvols per sota de 1500 mi sense presència de cumulonimbus.

METAR: OKBK 220200Z 34008KT CAVOK 33/09 Q1016 NOSIG

Hora: 05:48 (02:48 UTC)

Pronòstic

L'informe es va fer fa 4 hores i 3 minuts, a les 22:45 UTC
Pronòstic vàlid del 22 a les 00 UTC al 23 a les 06 UTC
Vent 8 kt del Nord/Nord-Oest amb ràfegues de 18 kt
Visibilitat: 7000 m

TAF: OKBK 212245Z 2200/2306 34008G18KT 7000 NSC

Observacions i pronòstics meteorològics de més de 4000 aeroports (METAR i TAF).

Les estacions disponibles són els punts grocs i vermells al mapa.

Posi el ratolí al punt desitjat per veure el nom de l'estació.

Feu clic per veure les observacions i els pronòstics meteorològics.

Per canviar el mapa: feu clic els botons verds amb una creu de color negre per apropar; al botó verd amb un guió per allunyar la imatge; o en les fletxes verdes per a mapes adjacents.


METAR-TAF: